Archival Weather

Chicago O'Hare International

Chicago, Illinois (KORD)

Report from: Friday, September 23, 2022 11:51 PM CDT
Current time: Sunday, December 4, 2022 6:02 AM CST

Current weather
Weather history
Weather forecast

Temperature14.4°C (57.9°F)
Dew point6.1°C (43.0°F)
Winds 7 kts (3.6 m/s, 8.1 mph) South (190°)
Visibility10 mi. (16.1 km)
Clouds Ceiling: Overcast 6,500 ft. (1,981 m)
Altimeter30.06 in.Hg (1018 mB)
Relative humidity57 %
Density altitude-92 ft. (-28 m)
Sea-level pressure101.8 kPa (1018 mB, 30.06 in.Hg)
Remarks Automated weather observing station with precipitation discriminator
Flight conditions Visual Meteorological Conditions
Raw dataKORD 240451Z 19007KT 10SM OVC065 14/06 A3006 RMK AO2 SLP180 T01440061
An error has occurred. This application may no longer respond until reloaded. Reload 🗙